ME50 weather

CLOSED Cross Lake Seaplane Base
Sinclair, Maine, United States

Public forecast

Using degrees Fahrenheit for public forecast. Weather courtesy of forecast.io.

METAR (pilot weather report)

Closest report is Northern Aroostook Regional Airport, 9.1 nm (16.9 km) N. Retrieved 2019/07/15 18:53 UTC (22 minutes ago):

KFVE 151853Z AUTO 33010G21KT 10SM FEW040 23/13 A2987 RMK AO2 SLP111 T02280128

TAF (pilot weather forecast)

Closest forecast is Northern Aroostook Regional Airport, 9.1 nm (16.9 km) N. Retrieved 2019/07/15 18:27 UTC (48 minutes ago):

TAF KFVE 151725Z 1518/1618 32011G20KT P6SM SCT035 FM160200 32010KT P6SM FEW050 FM161700 24006KT P6SM SKC